createdAt,value
2018-09-14T00:01:19.901Z,96.89
2018-09-14T00:04:19.857Z,98.83
2018-09-14T00:07:19.817Z,98.58
2018-09-14T00:10:19.789Z,98.68
2018-09-14T00:13:19.741Z,99.13
2018-09-14T00:16:19.717Z,99.85
2018-09-14T00:19:19.664Z,99.99
2018-09-14T00:22:19.672Z,99.99
2018-09-14T00:25:19.626Z,99.99
2018-09-14T00:28:19.581Z,99.99
2018-09-14T00:31:19.535Z,99.99
2018-09-14T00:34:19.918Z,99.99
2018-09-14T00:37:19.461Z,99.99
2018-09-14T00:40:19.455Z,99.99
2018-09-14T00:43:19.397Z,99.99
2018-09-14T00:46:19.367Z,99.99
2018-09-14T00:49:19.355Z,99.99
2018-09-14T00:52:19.303Z,99.99
2018-09-14T00:55:19.265Z,99.99
2018-09-14T00:58:19.232Z,99.99
2018-09-14T01:01:19.189Z,99.99
2018-09-14T01:04:19.169Z,99.99
2018-09-14T01:07:19.130Z,99.99
2018-09-14T01:10:19.101Z,99.99
2018-09-14T01:13:19.060Z,99.99
2018-09-14T01:16:19.038Z,99.99
2018-09-14T01:19:18.982Z,99.99
2018-09-14T01:22:18.965Z,99.99
2018-09-14T01:25:18.953Z,99.99
2018-09-14T01:28:18.917Z,99.99
2018-09-14T01:31:18.859Z,99.99
2018-09-14T01:34:18.840Z,99.99
2018-09-14T01:37:18.775Z,99.99
2018-09-14T01:40:20.388Z,99.99
2018-09-14T01:43:18.705Z,99.99
2018-09-14T01:46:18.704Z,99.99
2018-09-14T01:49:18.637Z,99.99
2018-09-14T01:52:19.362Z,99.99
2018-09-14T01:55:18.564Z,99.99
2018-09-14T01:58:18.566Z,99.99
2018-09-14T02:01:18.529Z,99.99
2018-09-14T02:04:18.517Z,99.99
2018-09-14T02:07:18.451Z,99.99
2018-09-14T02:10:18.415Z,99.99
2018-09-14T02:13:18.394Z,99.99
2018-09-14T02:16:18.352Z,99.99
2018-09-14T02:19:18.291Z,99.99
2018-09-14T02:22:18.281Z,99.99
2018-09-14T02:25:18.243Z,99.99
2018-09-14T02:28:18.210Z,99.99
2018-09-14T02:31:18.165Z,99.99
2018-09-14T02:34:18.166Z,99.99
2018-09-14T02:37:18.090Z,99.99
2018-09-14T02:40:18.150Z,99.99
2018-09-14T02:43:18.063Z,99.99
2018-09-14T02:46:18.019Z,99.99
2018-09-14T02:49:17.964Z,99.99
2018-09-14T02:52:17.934Z,99.99
2018-09-14T02:55:17.883Z,99.99
2018-09-14T02:58:17.880Z,99.99
2018-09-14T03:01:17.845Z,99.99
2018-09-14T03:04:17.797Z,99.99
2018-09-14T03:07:17.788Z,99.99
2018-09-14T03:10:17.727Z,99.99
2018-09-14T03:13:17.703Z,99.99
2018-09-14T03:16:17.678Z,99.99
2018-09-14T03:19:17.624Z,99.99
2018-09-14T03:22:17.595Z,99.99
2018-09-14T03:25:17.577Z,99.99
2018-09-14T03:28:17.521Z,99.99
2018-09-14T03:31:17.482Z,99.99
2018-09-14T03:34:17.487Z,99.99
2018-09-14T03:37:17.409Z,99.99
2018-09-14T03:40:17.395Z,99.99
2018-09-14T03:43:17.351Z,99.99
2018-09-14T03:46:17.550Z,99.99
2018-09-14T03:49:17.284Z,99.99
2018-09-14T03:52:17.259Z,99.99
2018-09-14T03:55:17.205Z,99.99
2018-09-14T03:58:17.226Z,99.99
2018-09-14T04:01:17.161Z,99.99
2018-09-14T04:04:17.107Z,99.99
2018-09-14T04:07:17.068Z,99.99
2018-09-14T04:10:17.071Z,99.99
2018-09-14T04:13:17.010Z,99.99
2018-09-14T04:16:17.024Z,99.99
2018-09-14T04:19:16.935Z,99.99
2018-09-14T04:22:16.914Z,99.99
2018-09-14T04:25:16.892Z,99.99
2018-09-14T04:28:16.909Z,99.99
2018-09-14T04:31:16.806Z,99.99
2018-09-14T04:34:16.866Z,99.99
2018-09-14T04:37:16.728Z,99.99
2018-09-14T04:40:16.724Z,99.99
2018-09-14T04:43:16.700Z,99.99
2018-09-14T04:46:16.636Z,99.99
2018-09-14T04:49:16.593Z,99.99
2018-09-14T04:52:18.330Z,99.99
2018-09-14T04:55:16.583Z,99.99
2018-09-14T04:58:16.513Z,99.99
2018-09-14T05:01:16.452Z,99.99
2018-09-14T05:04:16.473Z,99.99
2018-09-14T05:07:16.405Z,99.99
2018-09-14T05:10:16.382Z,99.99
2018-09-14T05:13:16.319Z,99.99
2018-09-14T05:16:16.308Z,99.99
2018-09-14T05:19:16.248Z,99.99
2018-09-14T05:22:16.258Z,99.99
2018-09-14T05:25:16.189Z,99.99
2018-09-14T05:28:16.168Z,99.99
2018-09-14T05:31:16.114Z,99.99
2018-09-14T05:34:16.117Z,99.99
2018-09-14T05:37:16.063Z,99.99
2018-09-14T05:40:16.037Z,99.99
2018-09-14T05:43:16.016Z,99.99
2018-09-14T05:46:15.968Z,99.70
2018-09-14T05:49:15.917Z,96.59
2018-09-14T05:52:15.877Z,93.95
2018-09-14T05:55:15.848Z,92.33
2018-09-14T05:58:15.826Z,90.26
2018-09-14T06:01:15.790Z,87.06
2018-09-14T06:04:15.765Z,86.68
2018-09-14T06:07:15.753Z,83.13
2018-09-14T06:10:15.687Z,82.54
2018-09-14T06:13:15.643Z,81.33
2018-09-14T06:16:15.608Z,80.94
2018-09-14T06:19:15.582Z,80.10
2018-09-14T06:22:15.559Z,80.03
2018-09-14T06:25:15.529Z,79.42
2018-09-14T06:28:15.488Z,78.17
2018-09-14T06:31:15.445Z,81.59
2018-09-14T06:34:15.419Z,79.59
2018-09-14T06:37:15.384Z,76.80
2018-09-14T06:40:15.356Z,76.94
2018-09-14T06:43:15.288Z,75.15
2018-09-14T06:46:16.826Z,78.09
2018-09-14T06:49:15.217Z,77.01
2018-09-14T06:52:15.193Z,76.33
2018-09-14T06:55:15.155Z,76.67
2018-09-14T06:58:15.134Z,71.00
2018-09-14T07:01:15.079Z,69.18
2018-09-14T07:04:15.080Z,69.08
2018-09-14T07:07:15.039Z,65.90
2018-09-14T07:10:17.795Z,63.62
2018-09-14T07:13:14.990Z,63.19
2018-09-14T07:16:14.922Z,61.43
2018-09-14T07:19:14.898Z,62.91
2018-09-14T07:22:14.934Z,63.95
2018-09-14T07:25:14.831Z,62.98
2018-09-14T07:28:14.820Z,62.08
2018-09-14T07:31:14.740Z,61.08
2018-09-14T07:34:14.719Z,60.93
2018-09-14T07:37:14.672Z,60.69
2018-09-14T07:40:14.650Z,59.32
2018-09-14T07:43:14.625Z,61.49
2018-09-14T07:46:15.824Z,63.22
2018-09-14T07:49:14.550Z,61.25
2018-09-14T07:52:14.535Z,61.33
2018-09-14T07:55:14.539Z,59.20
2018-09-14T07:58:14.444Z,56.05
2018-09-14T08:01:14.479Z,56.55
2018-09-14T08:04:14.410Z,55.85
2018-09-14T08:07:14.343Z,55.29
2018-09-14T08:10:14.310Z,55.72
2018-09-14T08:13:14.323Z,55.02
2018-09-14T08:16:14.259Z,53.42
2018-09-14T08:19:14.198Z,54.97
2018-09-14T08:22:14.181Z,55.77
2018-09-14T08:25:14.135Z,54.74
2018-09-14T08:28:14.134Z,53.77
2018-09-14T08:31:14.069Z,50.07
2018-09-14T08:34:14.047Z,53.09
2018-09-14T08:37:13.998Z,51.32
2018-09-14T08:40:13.995Z,50.32
2018-09-14T08:43:13.945Z,50.40
2018-09-14T08:48:06.084Z,53.37
2018-09-14T08:51:06.023Z,49.52
2018-09-14T08:54:06.365Z,50.12
2018-09-14T08:57:05.948Z,49.40
2018-09-14T09:00:05.917Z,49.25
2018-09-14T09:03:05.921Z,48.53
2018-09-14T09:06:05.849Z,49.03
2018-09-14T09:09:05.823Z,46.81
2018-09-14T09:12:05.806Z,47.61
2018-09-14T09:15:05.742Z,47.11
2018-09-14T09:18:05.731Z,46.24
2018-09-14T09:21:05.677Z,47.26
2018-09-14T09:24:05.660Z,46.44
2018-09-14T09:27:07.753Z,47.16
2018-09-14T09:30:05.588Z,45.52
2018-09-14T09:33:05.547Z,43.59
2018-09-14T09:36:05.545Z,45.18
2018-09-14T09:39:05.480Z,43.30
2018-09-14T09:42:05.454Z,44.90
2018-09-14T09:45:05.408Z,44.02
2018-09-14T09:48:05.402Z,45.50
2018-09-14T09:51:05.410Z,46.04
2018-09-14T09:54:05.327Z,44.10
2018-09-14T09:57:05.449Z,45.36
2018-09-14T10:00:05.261Z,43.52
2018-09-14T10:03:05.221Z,44.26
2018-09-14T10:06:05.212Z,40.60
2018-09-14T10:09:05.179Z,44.26
2018-09-14T10:12:05.185Z,42.15
2018-09-14T10:15:05.120Z,42.86
2018-09-14T10:18:05.112Z,43.73
2018-09-14T10:21:05.075Z,46.23
2018-09-14T10:24:05.014Z,45.02
2018-09-14T10:27:05.034Z,41.12
2018-09-14T10:30:04.940Z,39.63
2018-09-14T10:33:04.908Z,39.63
2018-09-14T10:36:04.875Z,43.38
2018-09-14T10:39:04.823Z,38.68
2018-09-14T10:42:04.826Z,40.58
2018-09-14T10:45:04.839Z,41.95
2018-09-14T10:48:04.745Z,40.66
2018-09-14T10:51:04.694Z,42.17
2018-09-14T10:54:04.693Z,42.69
2018-09-14T10:57:04.632Z,40.96
2018-09-14T11:00:04.623Z,39.59
2018-09-14T11:03:04.591Z,38.62
2018-09-14T11:06:04.555Z,37.91
2018-09-14T11:09:04.511Z,40.84
2018-09-14T11:12:04.480Z,43.65
2018-09-14T11:15:04.451Z,46.67
2018-09-14T11:18:04.423Z,44.01
2018-09-14T11:21:04.404Z,47.30
2018-09-14T11:24:04.372Z,46.83
2018-09-14T11:27:05.366Z,43.90
2018-09-14T11:30:04.298Z,46.53
2018-09-14T11:33:04.247Z,42.23
2018-09-14T11:36:04.225Z,41.06
2018-09-14T11:39:04.203Z,40.14
2018-09-14T11:42:04.166Z,40.88
2018-09-14T11:45:04.125Z,40.80
2018-09-14T11:48:04.113Z,39.78
2018-09-14T11:51:04.072Z,41.06
2018-09-14T11:54:04.237Z,42.25
2018-09-14T11:57:04.025Z,39.07
2018-09-14T12:00:03.998Z,39.61
2018-09-14T12:03:03.999Z,38.11
2018-09-14T12:06:03.920Z,39.03
2018-09-14T12:09:03.910Z,38.03
2018-09-14T12:12:03.908Z,37.92
2018-09-14T12:15:03.812Z,36.70
2018-09-14T12:18:03.869Z,39.11
2018-09-14T12:21:03.753Z,38.20
2018-09-14T12:24:03.758Z,39.40
2018-09-14T12:27:03.725Z,37.18
2018-09-14T12:30:03.708Z,37.79
2018-09-14T12:33:03.639Z,37.98
2018-09-14T12:36:05.581Z,35.83
2018-09-14T12:39:03.599Z,35.14
2018-09-14T12:42:04.567Z,35.95
2018-09-14T12:45:03.503Z,36.38
2018-09-14T12:48:03.600Z,37.76
2018-09-14T12:51:03.440Z,35.85
2018-09-14T12:54:03.476Z,35.08
2018-09-14T12:57:03.593Z,36.49
2018-09-14T13:00:03.422Z,35.91
2018-09-14T13:03:03.335Z,35.27
2018-09-14T13:06:03.331Z,35.08
2018-09-14T13:09:03.266Z,35.16
2018-09-14T13:12:03.253Z,35.95
2018-09-14T13:15:03.268Z,36.21
2018-09-14T13:18:03.183Z,37.23
2018-09-14T13:21:03.127Z,37.90
2018-09-14T13:24:03.155Z,38.13
2018-09-14T13:27:03.113Z,38.46
2018-09-14T13:30:03.194Z,36.82
2018-09-14T13:33:03.889Z,37.32
2018-09-14T13:36:03.069Z,37.90
2018-09-14T13:39:02.949Z,38.01
2018-09-14T13:42:02.957Z,36.29
2018-09-14T13:45:02.923Z,38.41
2018-09-14T13:48:02.870Z,36.80
2018-09-14T13:51:02.820Z,36.72
2018-09-14T13:54:02.799Z,37.73
2018-09-14T13:57:02.759Z,36.72
2018-09-14T14:00:02.756Z,37.41
2018-09-14T14:03:02.710Z,37.92
2018-09-14T14:06:03.477Z,39.21
2018-09-14T14:09:02.722Z,36.75
2018-09-14T14:12:02.697Z,35.79
2018-09-14T14:15:02.560Z,36.85
2018-09-14T14:18:02.552Z,36.36
2018-09-14T14:21:02.582Z,37.06
2018-09-14T14:24:02.485Z,37.28
2018-09-14T14:27:02.451Z,37.28
2018-09-14T14:30:02.446Z,36.57
2018-09-14T14:33:02.379Z,35.16
2018-09-14T14:36:02.402Z,36.62
2018-09-14T14:39:02.377Z,37.08
2018-09-14T14:42:02.364Z,36.90
2018-09-14T14:45:02.275Z,39.34
2018-09-14T14:48:02.245Z,40.34
2018-09-14T14:51:02.195Z,41.24
2018-09-14T14:54:02.176Z,38.73
2018-09-14T14:57:02.304Z,37.46
2018-09-14T15:00:02.203Z,36.68
2018-09-14T15:03:02.158Z,36.52
2018-09-14T15:06:02.154Z,36.50
2018-09-14T15:09:02.007Z,38.25
2018-09-14T15:12:02.031Z,39.44
2018-09-14T15:15:01.979Z,37.85
2018-09-14T15:18:01.946Z,42.57
2018-09-14T15:21:01.906Z,43.16
2018-09-14T15:24:01.863Z,44.18
2018-09-14T15:27:01.865Z,43.58
2018-09-14T15:30:01.784Z,45.40
2018-09-14T15:33:01.729Z,45.06
2018-09-14T15:36:01.714Z,43.48
2018-09-14T15:39:01.671Z,44.40
2018-09-14T15:42:01.641Z,44.30
2018-09-14T15:45:01.604Z,45.72
2018-09-14T15:48:01.586Z,44.26
2018-09-14T15:51:01.536Z,44.18
2018-09-14T15:54:01.505Z,46.18
2018-09-14T15:57:01.459Z,45.58
2018-09-14T16:00:01.456Z,46.00
2018-09-14T16:03:01.402Z,43.51
2018-09-14T16:06:01.386Z,43.12
2018-09-14T16:09:01.325Z,43.74
2018-09-14T16:12:01.317Z,43.57
2018-09-14T16:15:01.281Z,43.37
2018-09-14T16:18:01.234Z,42.38
2018-09-14T16:21:01.195Z,43.70
2018-09-14T16:24:01.180Z,44.35
2018-09-14T16:27:01.123Z,46.11
2018-09-14T16:30:01.117Z,46.20
2018-09-14T16:33:01.077Z,46.65
2018-09-14T16:36:01.045Z,47.27
2018-09-14T16:39:01.024Z,49.10
2018-09-14T16:42:00.979Z,49.83
2018-09-14T16:45:00.930Z,49.63
2018-09-14T16:48:00.910Z,49.83
2018-09-14T16:51:00.853Z,50.15
2018-09-14T16:54:00.869Z,50.56
2018-09-14T16:57:00.832Z,49.95
2018-09-14T17:00:00.767Z,51.97
2018-09-14T17:03:00.748Z,51.66
2018-09-14T17:06:00.712Z,50.66
2018-09-14T17:09:00.649Z,51.68
2018-09-14T17:12:00.638Z,51.49
2018-09-14T17:15:00.588Z,52.01
2018-09-14T17:18:00.565Z,53.34
2018-09-14T17:21:00.514Z,53.98
2018-09-14T17:24:00.488Z,54.91
2018-09-14T17:27:00.445Z,55.54
2018-09-14T17:30:00.414Z,55.44
2018-09-14T17:33:00.363Z,56.15
2018-09-14T17:36:00.355Z,55.84
2018-09-14T17:39:00.297Z,55.66
2018-09-14T17:42:00.301Z,57.08
2018-09-14T17:45:00.245Z,57.48
2018-09-14T17:48:00.332Z,57.91
2018-09-14T17:51:00.171Z,58.25
2018-09-14T17:54:00.141Z,58.54
2018-09-14T17:57:00.094Z,58.85
2018-09-14T18:00:00.087Z,59.45
2018-09-14T18:03:00.009Z,59.66
2018-09-14T18:06:00.030Z,59.78
2018-09-14T18:08:59.960Z,60.69
2018-09-14T18:11:59.917Z,60.89
2018-09-14T18:14:59.894Z,60.82
2018-09-14T18:17:59.845Z,61.13
2018-09-14T18:20:59.843Z,61.36
2018-09-14T18:24:01.398Z,62.87
2018-09-14T18:26:59.761Z,62.67
2018-09-14T18:29:59.726Z,63.68
2018-09-14T18:32:59.708Z,63.68
2018-09-14T18:35:59.690Z,63.58
2018-09-14T18:38:59.615Z,64.90
2018-09-14T18:41:59.614Z,64.09
2018-09-14T18:44:59.547Z,64.59
2018-09-14T18:47:59.527Z,64.79
2018-09-14T18:50:59.476Z,64.49
2018-09-14T18:54:00.428Z,64.79
2018-09-14T18:56:59.407Z,64.29
2018-09-14T18:59:59.878Z,64.79
2018-09-14T19:02:59.337Z,64.70
2018-09-14T19:05:59.294Z,64.79
2018-09-14T19:08:59.262Z,65.61
2018-09-14T19:11:59.237Z,65.50
2018-09-14T19:14:59.191Z,65.73
2018-09-14T19:18:00.291Z,66.04
2018-09-14T19:20:59.115Z,66.55
2018-09-14T19:23:59.097Z,66.55
2018-09-14T19:26:59.050Z,66.95
2018-09-14T19:29:59.039Z,68.40
2018-09-14T19:32:58.977Z,68.90
2018-09-14T19:35:58.951Z,69.14
2018-09-14T19:38:58.940Z,70.05
2018-09-14T19:41:59.871Z,69.65
2018-09-14T19:44:59.336Z,69.88
2018-09-14T19:48:01.947Z,69.85
2018-09-14T19:50:58.804Z,70.69
2018-09-14T19:53:58.778Z,70.39
2018-09-14T19:56:58.701Z,71.23
2018-09-14T19:59:58.682Z,70.18
2018-09-14T20:02:58.636Z,69.78
2018-09-14T20:05:58.669Z,69.48
2018-09-14T20:08:58.572Z,69.54
2018-09-14T20:11:58.572Z,70.08
2018-09-14T20:14:58.501Z,69.85
2018-09-14T20:17:58.583Z,70.05
2018-09-14T20:20:58.454Z,70.45
2018-09-14T20:23:58.578Z,70.05
2018-09-14T20:26:58.412Z,69.95
2018-09-14T20:29:58.370Z,69.54
2018-09-14T20:32:58.302Z,69.95
2018-09-14T20:35:58.290Z,69.44
2018-09-14T20:38:58.244Z,69.10
2018-09-14T20:41:58.212Z,68.80
2018-09-14T20:44:58.172Z,68.30
2018-09-14T20:47:58.198Z,68.80
2018-09-14T20:50:58.110Z,68.10
2018-09-14T20:53:58.887Z,68.30
2018-09-14T20:56:58.025Z,67.99
2018-09-14T20:59:58.015Z,68.19
2018-09-14T21:02:57.975Z,68.40
2018-09-14T21:05:57.949Z,68.40
2018-09-14T21:08:57.907Z,68.40
2018-09-14T21:11:57.888Z,69.34
2018-09-14T21:14:57.857Z,69.44
2018-09-14T21:17:57.860Z,69.44
2018-09-14T21:20:57.764Z,69.51
2018-09-14T21:23:57.761Z,69.24
2018-09-14T21:26:57.712Z,69.95
2018-09-14T21:29:57.661Z,69.44
2018-09-14T21:32:57.623Z,69.74
2018-09-14T21:35:57.617Z,69.54
2018-09-14T21:38:57.553Z,69.65
2018-09-14T21:41:57.558Z,69.74
2018-09-14T21:44:57.503Z,69.54
2018-09-14T21:47:57.479Z,69.54
2018-09-14T21:50:57.430Z,69.44
2018-09-14T21:53:57.425Z,69.74
2018-09-14T21:56:57.343Z,69.74
2018-09-14T21:59:57.344Z,69.34
2018-09-14T22:02:57.301Z,69.44
2018-09-14T22:05:57.275Z,69.65
2018-09-14T22:08:57.253Z,69.65
2018-09-14T22:11:57.211Z,68.94
2018-09-14T22:14:57.150Z,68.73
2018-09-14T22:17:57.110Z,69.44
2018-09-14T22:20:57.083Z,69.04
2018-09-14T22:23:57.060Z,68.43
2018-09-14T22:26:57.089Z,68.94
2018-09-14T22:29:57.008Z,68.63
2018-09-14T22:32:56.956Z,68.73
2018-09-14T22:35:56.911Z,68.13
2018-09-14T22:38:56.901Z,68.73
2018-09-14T22:41:56.877Z,69.24
2018-09-14T22:44:56.808Z,68.43
2018-09-14T22:47:56.790Z,68.43
2018-09-14T22:50:56.743Z,68.46
2018-09-14T22:53:56.718Z,68.94
2018-09-14T22:56:56.659Z,69.68
2018-09-14T22:59:56.688Z,69.81
2018-09-14T23:02:56.593Z,70.12
2018-09-14T23:05:56.575Z,70.52
2018-09-14T23:08:56.543Z,70.01
2018-09-14T23:11:56.513Z,69.95
2018-09-14T23:14:56.465Z,71.06
2018-09-14T23:17:56.551Z,70.05
2018-09-14T23:20:56.386Z,71.37
2018-09-14T23:23:56.367Z,71.26
2018-09-14T23:26:56.336Z,71.91
2018-09-14T23:29:56.301Z,72.34
2018-09-14T23:32:56.263Z,72.96
2018-09-14T23:35:56.229Z,73.57
2018-09-14T23:38:56.194Z,73.60
2018-09-14T23:41:56.173Z,73.70
2018-09-14T23:44:56.125Z,74.01
2018-09-14T23:47:56.118Z,74.65
2018-09-14T23:50:56.059Z,75.05
2018-09-14T23:53:56.032Z,74.85
2018-09-14T23:56:55.977Z,74.75
2018-09-14T23:59:55.948Z,75.56
